createdAt,value
2017-01-11T00:00:33.358Z,0
2017-01-11T00:01:33.278Z,0
2017-01-11T00:02:32.585Z,0
2017-01-11T00:03:32.544Z,0
2017-01-11T00:04:33.110Z,0
2017-01-11T00:05:32.604Z,0
2017-01-11T00:06:32.527Z,0
2017-01-11T00:07:33.870Z,0
2017-01-11T00:08:33.085Z,0
2017-01-11T00:09:33.171Z,0
2017-01-11T00:10:33.665Z,0
2017-01-11T00:11:33.276Z,0
2017-01-11T00:12:34.473Z,0
2017-01-11T00:13:33.609Z,0
2017-01-11T00:14:35.218Z,0
2017-01-11T00:15:34.333Z,0
2017-01-11T00:16:33.379Z,0
2017-01-11T00:17:33.331Z,0
2017-01-11T00:18:34.006Z,0
2017-01-11T00:19:33.561Z,0
2017-01-11T00:20:33.379Z,0
2017-01-11T00:21:33.820Z,0
2017-01-11T00:22:34.562Z,0
2017-01-11T00:23:33.510Z,0
2017-01-11T00:24:33.321Z,0
2017-01-11T00:25:34.813Z,0
2017-01-11T00:26:33.842Z,0
2017-01-11T00:27:34.157Z,0
2017-01-11T00:28:34.402Z,0
2017-01-11T00:29:33.832Z,0
2017-01-11T00:30:33.648Z,0
2017-01-11T00:31:33.421Z,0
2017-01-11T00:32:33.227Z,0
2017-01-11T00:33:35.064Z,0
2017-01-11T00:34:33.395Z,0
2017-01-11T00:35:33.451Z,0
2017-01-11T00:36:33.109Z,0
2017-01-11T00:37:33.565Z,0
2017-01-11T00:38:32.502Z,0
2017-01-11T00:39:33.960Z,0
2017-01-11T00:40:32.984Z,0
2017-01-11T00:41:33.419Z,0
2017-01-11T00:42:32.942Z,0
2017-01-11T00:43:34.613Z,0
2017-01-11T00:44:32.802Z,0
2017-01-11T00:45:34.902Z,0
2017-01-11T00:46:34.718Z,0
2017-01-11T00:47:34.951Z,0
2017-01-11T00:48:34.145Z,0
2017-01-11T00:49:33.242Z,0
2017-01-11T00:50:33.134Z,0
2017-01-11T00:51:33.072Z,0
2017-01-11T00:52:34.520Z,0
2017-01-11T00:53:34.143Z,0
2017-01-11T00:54:33.765Z,0
2017-01-11T00:55:33.739Z,0
2017-01-11T00:56:34.009Z,0
2017-01-11T00:57:34.480Z,0
2017-01-11T00:58:34.354Z,0
2017-01-11T00:59:33.562Z,0
2017-01-11T01:00:33.728Z,0
2017-01-11T01:01:34.243Z,0
2017-01-11T01:02:33.208Z,0
2017-01-11T01:03:34.232Z,0
2017-01-11T01:04:33.967Z,0
2017-01-11T01:05:34.164Z,0
2017-01-11T01:06:34.446Z,0
2017-01-11T01:07:35.068Z,0
2017-01-11T01:08:34.456Z,0
2017-01-11T01:09:33.825Z,0
2017-01-11T01:10:33.839Z,0
2017-01-11T01:11:34.770Z,0
2017-01-11T01:12:34.920Z,0
2017-01-11T01:13:34.124Z,0
2017-01-11T01:14:33.220Z,0
2017-01-11T01:15:35.311Z,0
2017-01-11T01:16:34.724Z,0
2017-01-11T01:17:33.593Z,0
2017-01-11T01:18:34.064Z,0
2017-01-11T01:19:34.549Z,0
2017-01-11T01:20:33.697Z,0
2017-01-11T01:21:35.338Z,0
2017-01-11T01:22:34.918Z,0
2017-01-11T01:23:34.514Z,0
2017-01-11T01:24:33.493Z,0
2017-01-11T01:25:33.463Z,0
2017-01-11T01:26:33.829Z,0
2017-01-11T01:27:33.717Z,0
2017-01-11T01:28:34.573Z,0
2017-01-11T01:29:34.569Z,0
2017-01-11T01:30:34.550Z,0
2017-01-11T01:31:34.192Z,0
2017-01-11T01:32:34.155Z,0
2017-01-11T01:33:34.481Z,0
2017-01-11T01:34:33.929Z,0
2017-01-11T01:35:33.277Z,0
2017-01-11T01:36:34.918Z,0
2017-01-11T01:37:35.303Z,0
2017-01-11T01:38:35.417Z,0
2017-01-11T01:39:35.865Z,0
2017-01-11T01:40:35.155Z,0
2017-01-11T01:41:35.073Z,0
2017-01-11T01:42:34.578Z,0
2017-01-11T01:43:34.962Z,0
2017-01-11T01:44:34.151Z,0
2017-01-11T01:45:34.598Z,0
2017-01-11T01:46:35.771Z,0
2017-01-11T01:47:34.610Z,0
2017-01-11T01:48:35.254Z,0
2017-01-11T01:49:35.553Z,0
2017-01-11T01:50:35.093Z,0
2017-01-11T01:51:34.261Z,0
2017-01-11T01:52:34.466Z,0
2017-01-11T01:53:34.797Z,0
2017-01-11T01:54:34.677Z,0
2017-01-11T01:55:34.133Z,0
2017-01-11T01:56:34.120Z,0
2017-01-11T01:57:34.563Z,0
2017-01-11T01:58:35.251Z,0
2017-01-11T01:59:34.667Z,0
2017-01-11T02:00:34.870Z,0
2017-01-11T02:01:34.886Z,0
2017-01-11T02:02:34.692Z,0
2017-01-11T02:03:34.776Z,0
2017-01-11T02:04:34.881Z,0
2017-01-11T02:05:34.273Z,0
2017-01-11T02:06:34.756Z,0
2017-01-11T02:07:34.502Z,0
2017-01-11T02:08:34.884Z,0
2017-01-11T02:09:35.034Z,0
2017-01-11T02:10:34.253Z,0
2017-01-11T02:11:34.383Z,0
2017-01-11T02:12:35.111Z,0
2017-01-11T02:13:35.555Z,0
2017-01-11T02:14:34.978Z,0
2017-01-11T02:15:34.726Z,0
2017-01-11T02:16:35.016Z,0
2017-01-11T02:17:34.402Z,0
2017-01-11T02:18:35.630Z,0
2017-01-11T02:19:34.620Z,0
2017-01-11T02:20:34.604Z,0
2017-01-11T02:21:34.884Z,0
2017-01-11T02:22:34.446Z,0
2017-01-11T02:23:35.255Z,0
2017-01-11T02:24:34.935Z,0
2017-01-11T02:25:34.422Z,0
2017-01-11T02:26:34.964Z,0
2017-01-11T02:27:34.701Z,0
2017-01-11T02:28:35.786Z,0
2017-01-11T02:29:35.130Z,0
2017-01-11T02:30:34.734Z,0
2017-01-11T02:31:34.490Z,0
2017-01-11T02:32:35.556Z,0
2017-01-11T02:33:34.928Z,0
2017-01-11T02:34:35.331Z,0
2017-01-11T02:35:35.035Z,0
2017-01-11T02:36:35.212Z,0
2017-01-11T02:37:35.413Z,0
2017-01-11T02:38:34.997Z,0
2017-01-11T02:39:34.961Z,0
2017-01-11T02:40:34.471Z,0
2017-01-11T02:41:35.765Z,0
2017-01-11T02:42:35.008Z,0
2017-01-11T02:43:35.235Z,0
2017-01-11T02:44:34.714Z,0
2017-01-11T02:45:35.351Z,0
2017-01-11T02:46:35.221Z,0
2017-01-11T02:47:34.885Z,0
2017-01-11T02:48:35.567Z,0
2017-01-11T02:49:35.240Z,0
2017-01-11T02:50:34.746Z,0
2017-01-11T02:51:34.778Z,0
2017-01-11T02:52:34.652Z,0
2017-01-11T02:53:35.288Z,0
2017-01-11T02:54:34.725Z,0
2017-01-11T02:55:35.381Z,0
2017-01-11T02:56:35.231Z,0
2017-01-11T02:57:34.636Z,0
2017-01-11T02:58:35.607Z,0
2017-01-11T02:59:34.266Z,0
2017-01-11T03:00:35.642Z,0
2017-01-11T03:01:35.760Z,0
2017-01-11T03:02:35.160Z,0
2017-01-11T03:03:35.674Z,0
2017-01-11T03:04:35.030Z,0
2017-01-11T03:05:35.175Z,0
2017-01-11T03:06:36.102Z,0
2017-01-11T03:07:35.490Z,0
2017-01-11T03:08:35.658Z,0
2017-01-11T03:09:35.460Z,0
2017-01-11T03:10:35.749Z,0
2017-01-11T03:11:35.954Z,0
2017-01-11T03:12:35.321Z,0
2017-01-11T03:13:36.266Z,0
2017-01-11T03:14:35.862Z,0
2017-01-11T03:15:35.109Z,0
2017-01-11T03:16:35.681Z,0
2017-01-11T03:17:36.339Z,0
2017-01-11T03:18:35.089Z,0
2017-01-11T03:19:35.003Z,0
2017-01-11T03:20:36.413Z,0
2017-01-11T03:21:35.587Z,0
2017-01-11T03:22:35.948Z,0
2017-01-11T03:23:36.980Z,0
2017-01-11T03:24:35.214Z,0
2017-01-11T03:25:35.761Z,0
2017-01-11T03:26:35.794Z,0
2017-01-11T03:27:35.890Z,0
2017-01-11T03:28:35.343Z,0
2017-01-11T03:29:35.572Z,0
2017-01-11T03:30:36.065Z,0
2017-01-11T03:31:35.975Z,0
2017-01-11T03:32:34.856Z,0
2017-01-11T03:33:36.408Z,0
2017-01-11T03:34:35.941Z,0
2017-01-11T03:35:35.284Z,0
2017-01-11T03:36:36.058Z,0
2017-01-11T03:37:35.372Z,0
2017-01-11T03:38:35.386Z,0
2017-01-11T03:39:36.613Z,0
2017-01-11T03:40:35.983Z,0
2017-01-11T03:41:36.418Z,0
2017-01-11T03:42:35.394Z,0
2017-01-11T03:43:35.730Z,0
2017-01-11T03:44:35.957Z,0
2017-01-11T03:45:35.352Z,0
2017-01-11T03:46:35.748Z,0
2017-01-11T03:47:35.183Z,0
2017-01-11T03:48:35.344Z,0
2017-01-11T03:49:35.763Z,0
2017-01-11T03:50:35.782Z,0
2017-01-11T03:51:36.088Z,0
2017-01-11T03:52:36.425Z,0
2017-01-11T03:53:36.742Z,0
2017-01-11T03:54:35.569Z,0
2017-01-11T03:55:35.792Z,0
2017-01-11T03:56:35.999Z,0
2017-01-11T03:57:36.187Z,0
2017-01-11T03:58:36.444Z,0
2017-01-11T03:59:36.308Z,0
2017-01-11T04:00:35.773Z,0
2017-01-11T04:01:36.059Z,0
2017-01-11T04:02:36.518Z,0
2017-01-11T04:03:36.393Z,0
2017-01-11T04:04:38.282Z,0
2017-01-11T04:05:36.314Z,0
2017-01-11T04:06:35.968Z,0
2017-01-11T04:07:35.697Z,0
2017-01-11T04:08:36.706Z,0
2017-01-11T04:09:36.092Z,0
2017-01-11T04:10:35.866Z,0
2017-01-11T04:11:36.830Z,0
2017-01-11T04:12:35.872Z,0
2017-01-11T04:13:36.310Z,0
2017-01-11T04:14:36.238Z,0
2017-01-11T04:15:36.432Z,0
2017-01-11T04:16:36.006Z,0
2017-01-11T04:17:36.114Z,0
2017-01-11T04:18:36.737Z,0
2017-01-11T04:19:36.632Z,0
2017-01-11T04:20:36.472Z,0
2017-01-11T04:21:36.259Z,0
2017-01-11T04:22:35.991Z,0
2017-01-11T04:23:35.939Z,0
2017-01-11T04:24:35.729Z,0
2017-01-11T04:25:36.916Z,0
2017-01-11T04:26:35.845Z,0
2017-01-11T04:27:36.200Z,0
2017-01-11T04:28:36.261Z,0
2017-01-11T04:29:35.918Z,0
2017-01-11T04:30:36.446Z,0
2017-01-11T04:31:37.215Z,0
2017-01-11T04:32:36.196Z,0
2017-01-11T04:33:36.870Z,0
2017-01-11T04:34:36.844Z,0
2017-01-11T04:35:36.044Z,0
2017-01-11T04:36:37.669Z,0
2017-01-11T04:37:36.317Z,0
2017-01-11T04:38:36.792Z,0
2017-01-11T04:39:36.145Z,0
2017-01-11T04:40:37.104Z,0
2017-01-11T04:41:37.111Z,0
2017-01-11T04:42:37.152Z,0
2017-01-11T04:43:37.155Z,0
2017-01-11T04:44:36.460Z,0
2017-01-11T04:45:36.524Z,0
2017-01-11T04:46:36.709Z,0
2017-01-11T04:47:36.216Z,0
2017-01-11T04:48:36.351Z,0
2017-01-11T04:49:37.132Z,0
2017-01-11T04:50:36.594Z,0
2017-01-11T04:51:36.843Z,0
2017-01-11T04:52:37.841Z,0
2017-01-11T04:53:36.447Z,0
2017-01-11T04:54:37.167Z,0
2017-01-11T04:55:38.062Z,0
2017-01-11T04:56:37.155Z,0
2017-01-11T04:57:36.416Z,0
2017-01-11T04:58:37.632Z,0
2017-01-11T04:59:36.657Z,0
2017-01-11T05:00:36.146Z,0
2017-01-11T05:01:37.189Z,0
2017-01-11T05:02:35.869Z,0
2017-01-11T05:03:36.942Z,0
2017-01-11T05:04:36.272Z,0
2017-01-11T05:05:36.160Z,0
2017-01-11T05:06:36.410Z,0
2017-01-11T05:07:36.202Z,0
2017-01-11T05:08:35.854Z,0
2017-01-11T05:09:37.907Z,0
2017-01-11T05:10:37.674Z,0
2017-01-11T05:11:37.955Z,0
2017-01-11T05:12:37.358Z,0
2017-01-11T05:13:36.374Z,0
2017-01-11T05:14:36.862Z,0
2017-01-11T05:15:37.375Z,0
2017-01-11T05:16:37.008Z,0
2017-01-11T05:17:37.328Z,0
2017-01-11T05:18:37.021Z,0
2017-01-11T05:19:37.427Z,0
2017-01-11T05:20:38.054Z,0
2017-01-11T05:21:37.536Z,0
2017-01-11T05:22:37.842Z,0
2017-01-11T05:23:38.553Z,0
2017-01-11T05:24:37.492Z,0
2017-01-11T05:25:37.262Z,0
2017-01-11T05:26:38.042Z,0
2017-01-11T05:27:37.310Z,0
2017-01-11T05:28:37.193Z,0
2017-01-11T05:29:38.090Z,0
2017-01-11T05:30:38.077Z,0
2017-01-11T05:31:37.849Z,0
2017-01-11T05:32:38.459Z,0
2017-01-11T05:33:38.061Z,0
2017-01-11T05:34:38.333Z,0
2017-01-11T05:35:37.888Z,0
2017-01-11T05:36:37.602Z,0
2017-01-11T05:37:38.149Z,0
2017-01-11T05:38:37.184Z,0
2017-01-11T05:39:37.858Z,0
2017-01-11T05:40:37.049Z,0
2017-01-11T05:41:37.955Z,0
2017-01-11T05:42:37.551Z,0
2017-01-11T05:43:37.474Z,0
2017-01-11T05:44:37.115Z,0
2017-01-11T05:45:38.328Z,0
2017-01-11T05:46:37.678Z,0
2017-01-11T05:47:38.445Z,0
2017-01-11T05:48:38.016Z,0
2017-01-11T05:49:37.587Z,0
2017-01-11T05:50:37.569Z,0
2017-01-11T05:51:37.549Z,0
2017-01-11T05:52:38.147Z,0
2017-01-11T05:53:37.928Z,0
2017-01-11T05:54:37.880Z,0
2017-01-11T05:55:38.076Z,0
2017-01-11T05:56:38.303Z,0
2017-01-11T05:57:37.805Z,0
2017-01-11T05:58:37.913Z,0
2017-01-11T05:59:38.099Z,0
2017-01-11T06:00:38.897Z,0
2017-01-11T06:01:38.244Z,0
2017-01-11T06:02:38.881Z,0
2017-01-11T06:03:38.876Z,0
2017-01-11T06:04:37.308Z,0
2017-01-11T06:05:38.405Z,0
2017-01-11T06:06:38.016Z,0
2017-01-11T06:07:40.484Z,0
2017-01-11T06:08:37.935Z,0
2017-01-11T06:09:38.009Z,0
2017-01-11T06:10:37.561Z,0
2017-01-11T06:11:38.423Z,0
2017-01-11T06:12:37.517Z,0
2017-01-11T06:13:38.447Z,0
2017-01-11T06:14:37.973Z,0
2017-01-11T06:15:38.680Z,0
2017-01-11T06:16:39.078Z,0
2017-01-11T06:17:37.444Z,0
2017-01-11T06:18:39.184Z,0
2017-01-11T06:19:38.821Z,0
2017-01-11T06:20:37.941Z,0
2017-01-11T06:21:38.350Z,0
2017-01-11T06:22:38.917Z,0
2017-01-11T06:23:38.070Z,0
2017-01-11T06:24:38.682Z,0
2017-01-11T06:25:38.688Z,0
2017-01-11T06:26:37.806Z,0
2017-01-11T06:27:38.611Z,0
2017-01-11T06:28:37.689Z,0
2017-01-11T06:29:38.414Z,0
2017-01-11T06:30:37.734Z,0
2017-01-11T06:31:38.158Z,0
2017-01-11T06:32:38.222Z,0
2017-01-11T06:33:38.658Z,0
2017-01-11T06:34:37.280Z,0
2017-01-11T06:35:37.289Z,0
2017-01-11T06:36:37.079Z,0
2017-01-11T06:37:37.454Z,0
2017-01-11T06:38:38.466Z,0
2017-01-11T06:39:40.572Z,0
2017-01-11T06:40:41.490Z,0
2017-01-11T06:41:41.999Z,0
2017-01-11T06:42:38.612Z,0
2017-01-11T06:43:38.839Z,0
2017-01-11T06:44:38.311Z,0
2017-01-11T06:45:38.650Z,0
2017-01-11T06:46:38.891Z,0
2017-01-11T06:47:38.256Z,0
2017-01-11T06:48:38.405Z,0
2017-01-11T06:49:38.447Z,0
2017-01-11T06:50:39.796Z,0
2017-01-11T06:51:38.219Z,0
2017-01-11T06:52:37.678Z,0
2017-01-11T06:53:40.511Z,0
2017-01-11T06:54:39.566Z,0
2017-01-11T06:55:39.491Z,0
2017-01-11T06:56:38.333Z,0
2017-01-11T06:57:38.535Z,0
2017-01-11T06:58:38.334Z,0
2017-01-11T06:59:38.815Z,0
2017-01-11T07:00:38.524Z,0
2017-01-11T07:01:38.721Z,0
2017-01-11T07:02:38.450Z,0
2017-01-11T07:03:38.096Z,0
2017-01-11T07:04:38.078Z,0
2017-01-11T07:05:39.460Z,0
2017-01-11T07:06:38.208Z,0
2017-01-11T07:07:38.428Z,0
2017-01-11T07:08:38.539Z,0
2017-01-11T07:09:39.985Z,0
2017-01-11T07:10:38.335Z,0
2017-01-11T07:11:38.729Z,5
2017-01-11T07:12:39.196Z,5
2017-01-11T07:13:39.520Z,5
2017-01-11T07:14:38.691Z,5
2017-01-11T07:15:38.877Z,5
2017-01-11T07:16:39.302Z,5
2017-01-11T07:17:38.882Z,5
2017-01-11T07:18:38.440Z,10
2017-01-11T07:19:39.431Z,10
2017-01-11T07:20:38.115Z,10
2017-01-11T07:21:39.094Z,10
2017-01-11T07:22:39.557Z,10
2017-01-11T07:23:39.268Z,10
2017-01-11T07:24:38.274Z,10
2017-01-11T07:25:38.590Z,15
2017-01-11T07:26:37.960Z,15
2017-01-11T07:27:38.530Z,15
2017-01-11T07:28:38.208Z,15
2017-01-11T07:29:38.486Z,20
2017-01-11T07:30:40.022Z,20
2017-01-11T07:31:38.287Z,20
2017-01-11T07:32:39.373Z,20
2017-01-11T07:33:39.437Z,20
2017-01-11T07:34:39.110Z,25
2017-01-11T07:35:38.442Z,25
2017-01-11T07:36:38.665Z,30
2017-01-11T07:37:38.332Z,30
2017-01-11T07:38:38.304Z,35
2017-01-11T07:39:37.610Z,35
2017-01-11T07:40:38.393Z,35
2017-01-11T07:41:39.230Z,35
2017-01-11T07:42:38.231Z,35
2017-01-11T07:43:38.744Z,35
2017-01-11T07:44:38.734Z,35
2017-01-11T07:45:38.839Z,35
2017-01-11T07:46:39.029Z,35
2017-01-11T07:47:38.783Z,35
2017-01-11T07:48:38.188Z,35
2017-01-11T07:49:38.021Z,40
2017-01-11T07:50:38.918Z,40
2017-01-11T07:51:39.041Z,40
2017-01-11T07:52:39.855Z,45
2017-01-11T07:53:38.452Z,45
2017-01-11T07:54:39.925Z,50
2017-01-11T07:55:39.923Z,55
2017-01-11T07:56:38.636Z,60
2017-01-11T07:57:38.941Z,60
2017-01-11T07:58:38.476Z,60
2017-01-11T07:59:40.055Z,65
2017-01-11T08:00:38.582Z,70
2017-01-11T08:01:39.148Z,70
2017-01-11T08:02:39.746Z,80
2017-01-11T08:03:38.460Z,85
2017-01-11T08:04:38.625Z,90
2017-01-11T08:05:39.290Z,90
2017-01-11T08:06:43.119Z,85
2017-01-11T08:07:40.455Z,85
2017-01-11T08:08:39.728Z,80
2017-01-11T08:09:40.753Z,80
2017-01-11T08:10:39.819Z,80
2017-01-11T08:11:39.480Z,80
2017-01-11T08:12:40.073Z,85
2017-01-11T08:13:39.650Z,90
2017-01-11T08:14:39.710Z,110
2017-01-11T08:15:39.929Z,120
2017-01-11T08:16:40.676Z,115
2017-01-11T08:17:39.679Z,95
2017-01-11T08:18:40.078Z,90
2017-01-11T08:19:40.276Z,90
2017-01-11T08:20:40.798Z,100
2017-01-11T08:21:39.760Z,95
2017-01-11T08:22:42.469Z,100
2017-01-11T08:23:40.206Z,115
2017-01-11T08:24:39.842Z,125
2017-01-11T08:25:41.448Z,125
2017-01-11T08:26:41.200Z,125
2017-01-11T08:27:40.843Z,130
2017-01-11T08:28:39.728Z,155
2017-01-11T08:29:40.897Z,155
2017-01-11T08:30:40.972Z,160
2017-01-11T08:31:42.545Z,160
2017-01-11T08:32:40.131Z,155
2017-01-11T08:33:41.065Z,135
2017-01-11T08:34:39.267Z,135
2017-01-11T08:35:39.647Z,130
2017-01-11T08:36:39.374Z,125
2017-01-11T08:37:40.447Z,130
2017-01-11T08:38:39.361Z,135
2017-01-11T08:39:39.631Z,140
2017-01-11T08:40:39.442Z,145
2017-01-11T08:41:39.679Z,155
2017-01-11T08:42:39.820Z,160
2017-01-11T08:43:40.976Z,170
2017-01-11T08:44:40.139Z,175
2017-01-11T08:45:39.589Z,185
2017-01-11T08:46:39.582Z,195
2017-01-11T08:47:39.249Z,190
2017-01-11T08:48:40.039Z,185
2017-01-11T08:49:39.933Z,190
2017-01-11T08:50:40.666Z,195
2017-01-11T08:51:40.148Z,200
2017-01-11T08:52:39.411Z,220
2017-01-11T08:53:40.444Z,230
2017-01-11T08:54:41.090Z,240
2017-01-11T08:55:41.656Z,260
2017-01-11T08:56:40.601Z,260
2017-01-11T08:57:39.794Z,260
2017-01-11T08:58:41.786Z,260
2017-01-11T08:59:40.587Z,245
2017-01-11T09:00:40.954Z,230
2017-01-11T09:01:41.692Z,215
2017-01-11T09:02:40.508Z,195
2017-01-11T09:03:39.543Z,225
2017-01-11T09:04:40.998Z,200
2017-01-11T09:05:40.953Z,245
2017-01-11T09:06:39.871Z,295
2017-01-11T09:07:40.742Z,325
2017-01-11T09:08:40.949Z,330
2017-01-11T09:09:40.909Z,340
2017-01-11T09:10:41.490Z,410
2017-01-11T09:11:41.397Z,410
2017-01-11T09:12:40.862Z,375
2017-01-11T09:13:41.336Z,350
2017-01-11T09:14:41.983Z,320
2017-01-11T09:15:42.037Z,310
2017-01-11T09:16:40.824Z,285
2017-01-11T09:17:40.202Z,265
2017-01-11T09:18:39.870Z,260
2017-01-11T09:19:40.834Z,250
2017-01-11T09:20:39.659Z,240
2017-01-11T09:21:40.165Z,245
2017-01-11T09:22:40.186Z,235
2017-01-11T09:23:40.348Z,230
2017-01-11T09:24:40.893Z,235
2017-01-11T09:25:40.958Z,225
2017-01-11T09:26:40.591Z,235
2017-01-11T09:27:40.942Z,235
2017-01-11T09:28:41.062Z,210
2017-01-11T09:29:40.857Z,210
2017-01-11T09:30:41.401Z,245
2017-01-11T09:31:40.217Z,195
2017-01-11T09:32:40.643Z,280
2017-01-11T09:33:41.093Z,240
2017-01-11T09:34:48.393Z,220
2017-01-11T09:35:49.147Z,205
2017-01-11T09:36:44.207Z,215
2017-01-11T09:37:43.726Z,215
2017-01-11T09:38:46.964Z,160
2017-01-11T09:39:46.162Z,165
2017-01-11T09:40:47.942Z,180
2017-01-11T09:41:47.953Z,185
2017-01-11T09:42:44.413Z,165
2017-01-11T09:43:43.043Z,155
2017-01-11T09:44:46.018Z,160
2017-01-11T09:45:44.763Z,165
2017-01-11T09:46:44.543Z,160
2017-01-11T09:47:43.799Z,180
2017-01-11T09:48:44.666Z,170
2017-01-11T09:49:44.609Z,175
2017-01-11T09:50:43.112Z,190
2017-01-11T09:51:44.034Z,205
2017-01-11T09:52:44.858Z,200
2017-01-11T09:53:46.119Z,175
2017-01-11T09:54:44.966Z,180
2017-01-11T09:55:44.579Z,205
2017-01-11T09:56:41.231Z,220
2017-01-11T09:57:40.949Z,200
2017-01-11T09:58:41.584Z,190
2017-01-11T09:59:41.015Z,160
2017-01-11T10:00:40.600Z,190
2017-01-11T10:01:40.493Z,195
2017-01-11T10:02:44.545Z,185
2017-01-11T10:03:39.937Z,190
2017-01-11T10:04:41.460Z,195
2017-01-11T10:05:40.402Z,200
2017-01-11T10:06:40.635Z,220
2017-01-11T10:07:40.805Z,265
2017-01-11T10:08:40.544Z,290
2017-01-11T10:09:41.512Z,300
2017-01-11T10:10:41.855Z,270
2017-01-11T10:11:41.104Z,235
2017-01-11T10:12:41.330Z,215
2017-01-11T10:13:40.830Z,200
2017-01-11T10:14:40.654Z,195
2017-01-11T10:15:40.676Z,185
2017-01-11T10:16:41.707Z,195
2017-01-11T10:17:41.723Z,185
2017-01-11T10:18:40.598Z,200
2017-01-11T10:19:40.582Z,230
2017-01-11T10:20:41.058Z,245
2017-01-11T10:21:40.480Z,280
2017-01-11T10:22:40.490Z,265
2017-01-11T10:23:41.229Z,230
2017-01-11T10:24:41.959Z,235
2017-01-11T10:25:41.687Z,235
2017-01-11T10:26:42.168Z,240
2017-01-11T10:27:41.217Z,230
2017-01-11T10:28:40.557Z,200
2017-01-11T10:29:43.188Z,195
2017-01-11T10:30:40.626Z,185
2017-01-11T10:31:42.339Z,190
2017-01-11T10:32:41.630Z,205
2017-01-11T10:33:41.685Z,215
2017-01-11T10:34:41.229Z,235
2017-01-11T10:35:41.390Z,220
2017-01-11T10:36:42.043Z,245
2017-01-11T10:37:41.742Z,255
2017-01-11T10:38:40.684Z,265
2017-01-11T10:39:41.855Z,260
2017-01-11T10:40:40.837Z,285
2017-01-11T10:41:42.567Z,290
2017-01-11T10:42:42.101Z,305
2017-01-11T10:43:41.058Z,315
2017-01-11T10:44:41.552Z,295
2017-01-11T10:45:41.239Z,295
2017-01-11T10:46:42.356Z,315
2017-01-11T10:47:41.182Z,330
2017-01-11T10:48:41.423Z,335
2017-01-11T10:49:41.160Z,270
2017-01-11T10:50:41.748Z,230
2017-01-11T10:51:41.326Z,225
2017-01-11T10:52:41.452Z,215
2017-01-11T10:53:41.810Z,245
2017-01-11T10:54:41.769Z,275
2017-01-11T10:55:42.016Z,275
2017-01-11T10:56:41.482Z,265
2017-01-11T10:57:41.385Z,235
2017-01-11T10:58:41.171Z,245
2017-01-11T10:59:41.376Z,270
2017-01-11T11:00:41.753Z,265
2017-01-11T11:01:41.827Z,260
2017-01-11T11:02:41.747Z,265
2017-01-11T11:03:40.796Z,280
2017-01-11T11:04:42.235Z,265
2017-01-11T11:05:41.578Z,220
2017-01-11T11:06:42.842Z,205
2017-01-11T11:07:41.037Z,195
2017-01-11T11:08:40.777Z,150
2017-01-11T11:09:41.848Z,160
2017-01-11T11:10:42.165Z,195
2017-01-11T11:11:42.459Z,185
2017-01-11T11:12:41.673Z,190
2017-01-11T11:13:40.838Z,205
2017-01-11T11:14:41.713Z,205
2017-01-11T11:15:42.102Z,205
2017-01-11T11:16:42.184Z,215
2017-01-11T11:17:42.136Z,200
2017-01-11T11:18:41.922Z,205
2017-01-11T11:19:41.294Z,190
2017-01-11T11:20:41.741Z,195
2017-01-11T11:21:41.978Z,205
2017-01-11T11:22:41.888Z,220
2017-01-11T11:23:42.347Z,240
2017-01-11T11:24:42.421Z,260
2017-01-11T11:25:42.634Z,275
2017-01-11T11:26:41.618Z,265
2017-01-11T11:27:41.726Z,230
2017-01-11T11:28:42.365Z,230
2017-01-11T11:29:42.471Z,265
2017-01-11T11:30:41.589Z,285
2017-01-11T11:31:41.391Z,320
2017-01-11T11:32:42.469Z,335
2017-01-11T11:33:41.708Z,335
2017-01-11T11:34:42.305Z,335
2017-01-11T11:35:42.491Z,270
2017-01-11T11:36:41.980Z,205
2017-01-11T11:37:42.001Z,235
2017-01-11T11:38:42.017Z,275
2017-01-11T11:39:41.914Z,235
2017-01-11T11:40:41.911Z,210
2017-01-11T11:41:41.837Z,230
2017-01-11T11:42:41.918Z,245
2017-01-11T11:43:42.116Z,240
2017-01-11T11:44:41.647Z,270
2017-01-11T11:45:42.165Z,240
2017-01-11T11:46:43.009Z,195
2017-01-11T11:47:41.820Z,175
2017-01-11T11:48:42.430Z,190
2017-01-11T11:49:43.206Z,200
2017-01-11T11:50:42.434Z,195
2017-01-11T11:51:43.297Z,185
2017-01-11T11:52:43.014Z,180
2017-01-11T11:53:42.320Z,180
2017-01-11T11:54:41.390Z,195
2017-01-11T11:55:42.989Z,185
2017-01-11T11:56:41.697Z,185
2017-01-11T11:57:42.286Z,180
2017-01-11T11:58:42.181Z,195
2017-01-11T11:59:42.685Z,195
2017-01-11T12:00:42.058Z,195
2017-01-11T12:01:42.986Z,180
2017-01-11T12:02:41.705Z,160
2017-01-11T12:03:42.746Z,150
2017-01-11T12:04:42.528Z,150
2017-01-11T12:05:43.460Z,160
2017-01-11T12:06:42.476Z,175
2017-01-11T12:07:41.616Z,200
2017-01-11T12:08:42.342Z,190
2017-01-11T12:09:42.000Z,175
2017-01-11T12:10:42.283Z,180
2017-01-11T12:11:43.008Z,180
2017-01-11T12:12:42.235Z,155
2017-01-11T12:13:42.571Z,125
2017-01-11T12:14:42.281Z,135
2017-01-11T12:15:42.289Z,170
2017-01-11T12:16:42.628Z,175
2017-01-11T12:17:42.653Z,190
2017-01-11T12:18:43.419Z,150
2017-01-11T12:19:43.099Z,115
2017-01-11T12:20:42.987Z,115
2017-01-11T12:21:43.950Z,110
2017-01-11T12:22:42.622Z,110
2017-01-11T12:23:43.154Z,115
2017-01-11T12:24:43.855Z,110
2017-01-11T12:25:42.771Z,105
2017-01-11T12:26:43.590Z,95
2017-01-11T12:27:42.878Z,85
2017-01-11T12:28:42.700Z,90
2017-01-11T12:29:43.483Z,90
2017-01-11T12:30:43.204Z,95
2017-01-11T12:31:42.407Z,95
2017-01-11T12:32:43.388Z,95
2017-01-11T12:33:43.523Z,95
2017-01-11T12:34:43.021Z,100
2017-01-11T12:35:43.847Z,110
2017-01-11T12:36:42.464Z,105
2017-01-11T12:37:43.654Z,100
2017-01-11T12:38:43.467Z,85
2017-01-11T12:39:42.270Z,80
2017-01-11T12:40:43.072Z,80
2017-01-11T12:41:44.222Z,85
2017-01-11T12:42:43.280Z,95
2017-01-11T12:43:42.377Z,85
2017-01-11T12:44:43.382Z,90
2017-01-11T12:45:42.782Z,90
2017-01-11T12:46:44.811Z,95
2017-01-11T12:47:43.393Z,105
2017-01-11T12:48:44.475Z,105
2017-01-11T12:49:42.764Z,100
2017-01-11T12:50:42.334Z,85
2017-01-11T12:51:44.513Z,60
2017-01-11T12:52:42.879Z,65
2017-01-11T12:53:44.552Z,80
2017-01-11T12:54:42.736Z,70
2017-01-11T12:55:43.209Z,60
2017-01-11T12:56:44.618Z,60
2017-01-11T12:57:43.265Z,80
2017-01-11T12:58:43.328Z,90
2017-01-11T12:59:43.496Z,95
2017-01-11T13:00:43.396Z,95
2017-01-11T13:01:45.622Z,95
2017-01-11T13:02:44.529Z,85
2017-01-11T13:03:43.551Z,75
2017-01-11T13:04:43.332Z,65
2017-01-11T13:05:43.339Z,75
2017-01-11T13:06:43.238Z,75
2017-01-11T13:07:43.579Z,85
2017-01-11T13:08:42.533Z,85
2017-01-11T13:09:43.785Z,75
2017-01-11T13:10:44.273Z,85
2017-01-11T13:11:43.764Z,75
2017-01-11T13:12:43.284Z,80
2017-01-11T13:13:43.650Z,70
2017-01-11T13:14:44.245Z,85
2017-01-11T13:15:44.038Z,90
2017-01-11T13:16:43.414Z,90
2017-01-11T13:17:43.761Z,85
2017-01-11T13:18:43.561Z,90
2017-01-11T13:19:44.823Z,95
2017-01-11T13:20:43.666Z,80
2017-01-11T13:21:43.585Z,90
2017-01-11T13:22:43.521Z,100
2017-01-11T13:23:43.367Z,100
2017-01-11T13:24:44.370Z,115
2017-01-11T13:25:45.572Z,115
2017-01-11T13:26:43.718Z,95
2017-01-11T13:27:44.122Z,95
2017-01-11T13:28:43.973Z,85
2017-01-11T13:29:43.093Z,70
2017-01-11T13:30:43.337Z,80
2017-01-11T13:31:44.057Z,85
2017-01-11T13:32:44.289Z,85
2017-01-11T13:33:45.017Z,80
2017-01-11T13:34:44.456Z,65
2017-01-11T13:35:43.764Z,70
2017-01-11T13:36:44.216Z,65
2017-01-11T13:37:43.830Z,60
2017-01-11T13:38:44.362Z,55
2017-01-11T13:39:43.588Z,60
2017-01-11T13:40:44.424Z,80
2017-01-11T13:41:43.501Z,105
2017-01-11T13:42:44.647Z,115
2017-01-11T13:43:43.468Z,85
2017-01-11T13:44:43.411Z,80
2017-01-11T13:45:43.411Z,70
2017-01-11T13:46:43.951Z,70
2017-01-11T13:47:43.496Z,65
2017-01-11T13:48:43.781Z,75
2017-01-11T13:49:44.162Z,75
2017-01-11T13:50:43.922Z,65
2017-01-11T13:51:44.407Z,75
2017-01-11T13:52:43.631Z,60
2017-01-11T13:53:43.684Z,50
2017-01-11T13:54:43.407Z,70
2017-01-11T13:55:43.282Z,75
2017-01-11T13:56:43.662Z,85
2017-01-11T13:57:44.156Z,85
2017-01-11T13:58:43.665Z,90
2017-01-11T13:59:44.169Z,55
2017-01-11T14:00:44.810Z,70
2017-01-11T14:01:44.020Z,70
2017-01-11T14:02:43.610Z,55
2017-01-11T14:03:44.111Z,70
2017-01-11T14:04:43.394Z,65
2017-01-11T14:05:44.165Z,50
2017-01-11T14:06:43.500Z,50
2017-01-11T14:07:44.235Z,50
2017-01-11T14:08:43.812Z,55
2017-01-11T14:09:44.444Z,60
2017-01-11T14:10:44.416Z,60
2017-01-11T14:11:44.533Z,45
2017-01-11T14:12:44.306Z,35
2017-01-11T14:13:44.843Z,30
2017-01-11T14:14:44.316Z,30
2017-01-11T14:15:44.517Z,40
2017-01-11T14:16:44.142Z,40
2017-01-11T14:17:44.460Z,35
2017-01-11T14:18:45.019Z,40
2017-01-11T14:19:45.523Z,35
2017-01-11T14:20:43.948Z,30
2017-01-11T14:21:44.275Z,35